sensor_id;sensor_type;location;lat;lon;timestamp;pressure;altitude;pressure_sealevel;temperature;humidity
50672;BME280;46021;55.882;37.654;2023-02-18T00:01:19;99629.78;;;-9.72;74.30
50672;BME280;46021;55.882;37.654;2023-02-18T00:03:48;99617.06;;;-9.75;74.28
50672;BME280;46021;55.882;37.654;2023-02-18T00:06:18;99619.63;;;-9.73;74.11
50672;BME280;46021;55.882;37.654;2023-02-18T00:08:47;99621.09;;;-9.78;74.84
50672;BME280;46021;55.882;37.654;2023-02-18T00:11:15;99601.41;;;-9.86;74.98
50672;BME280;46021;55.882;37.654;2023-02-18T00:13:43;99604.28;;;-9.78;74.49
50672;BME280;46021;55.882;37.654;2023-02-18T00:16:11;99615.88;;;-9.82;75.04
50672;BME280;46021;55.882;37.654;2023-02-18T00:18:38;99598.88;;;-9.86;74.89
50672;BME280;46021;55.882;37.654;2023-02-18T00:21:07;99604.09;;;-9.83;74.66
50672;BME280;46021;55.882;37.654;2023-02-18T00:23:35;99607.22;;;-9.87;75.05
50672;BME280;46021;55.882;37.654;2023-02-18T00:26:04;99591.97;;;-9.90;74.73
50672;BME280;46021;55.882;37.654;2023-02-18T00:28:32;99585.91;;;-9.93;74.53
50672;BME280;46021;55.882;37.654;2023-02-18T00:31:04;99596.50;;;-9.83;74.96
50672;BME280;46021;55.882;37.654;2023-02-18T00:33:31;99587.03;;;-9.87;74.47
50672;BME280;46021;55.882;37.654;2023-02-18T00:36:01;99578.69;;;-9.86;74.11
50672;BME280;46021;55.882;37.654;2023-02-18T00:38:28;99582.72;;;-9.89;74.81
50672;BME280;46021;55.882;37.654;2023-02-18T00:40:56;99583.75;;;-9.86;74.14
50672;BME280;46021;55.882;37.654;2023-02-18T00:43:24;99579.56;;;-9.85;74.29
50672;BME280;46021;55.882;37.654;2023-02-18T00:45:51;99573.38;;;-9.92;74.38
50672;BME280;46021;55.882;37.654;2023-02-18T00:48:19;99573.50;;;-9.89;74.32
50672;BME280;46021;55.882;37.654;2023-02-18T00:50:46;99563.06;;;-9.96;73.98
50672;BME280;46021;55.882;37.654;2023-02-18T00:53:13;99571.78;;;-9.90;74.25
50672;BME280;46021;55.882;37.654;2023-02-18T00:55:41;99567.59;;;-9.89;74.08
50672;BME280;46021;55.882;37.654;2023-02-18T00:58:10;99564.06;;;-9.93;74.32
50672;BME280;46021;55.882;37.654;2023-02-18T01:00:37;99559.03;;;-9.93;73.92
50672;BME280;46021;55.882;37.654;2023-02-18T01:03:05;99557.31;;;-9.94;74.53
50672;BME280;46021;55.882;37.654;2023-02-18T01:05:33;99554.63;;;-9.97;74.08
50672;BME280;46021;55.882;37.654;2023-02-18T01:08:00;99552.09;;;-9.97;73.87
50672;BME280;46021;55.882;37.654;2023-02-18T01:10:28;99537.47;;;-10.04;74.32
50672;BME280;46021;55.882;37.654;2023-02-18T01:12:56;99525.38;;;-10.11;74.40
50672;BME280;46021;55.882;37.654;2023-02-18T01:15:25;99536.69;;;-10.03;74.37
50672;BME280;46021;55.882;37.654;2023-02-18T01:17:52;99512.72;;;-10.13;73.74
50672;BME280;46021;55.882;37.654;2023-02-18T01:20:19;99520.31;;;-10.11;74.22
50672;BME280;46021;55.882;37.654;2023-02-18T01:22:46;99509.09;;;-10.18;74.36
50672;BME280;46021;55.882;37.654;2023-02-18T01:25:14;99509.09;;;-10.18;74.43
50672;BME280;46021;55.882;37.654;2023-02-18T01:27:41;99497.22;;;-10.21;74.44
50672;BME280;46021;55.882;37.654;2023-02-18T01:30:11;99498.00;;;-10.22;74.20
50672;BME280;46021;55.882;37.654;2023-02-18T01:32:41;99494.56;;;-10.24;74.44
50672;BME280;46021;55.882;37.654;2023-02-18T01:35:11;99492.81;;;-10.25;74.16
50672;BME280;46021;55.882;37.654;2023-02-18T01:37:38;99476.69;;;-10.28;74.62
50672;BME280;46021;55.882;37.654;2023-02-18T01:40:07;99484.19;;;-10.30;74.36
50672;BME280;46021;55.882;37.654;2023-02-18T01:42:34;99484.91;;;-10.32;74.40
50672;BME280;46021;55.882;37.654;2023-02-18T01:45:36;99468.78;;;-10.36;74.76
50672;BME280;46021;55.882;37.654;2023-02-18T01:48:11;99471.81;;;-10.43;74.72
50672;BME280;46021;55.882;37.654;2023-02-18T01:50:43;99473.53;;;-10.42;74.73
50672;BME280;46021;55.882;37.654;2023-02-18T01:53:13;99457.41;;;-10.46;74.69
50672;BME280;46021;55.882;37.654;2023-02-18T01:55:40;99469.50;;;-10.38;74.37
50672;BME280;46021;55.882;37.654;2023-02-18T01:58:08;99467.06;;;-10.37;74.65
50672;BME280;46021;55.882;37.654;2023-02-18T02:00:37;99452.38;;;-10.46;74.48
50672;BME280;46021;55.882;37.654;2023-02-18T02:03:04;99453.09;;;-10.48;74.96
50672;BME280;46021;55.882;37.654;2023-02-18T02:05:33;99449.78;;;-10.47;74.92
50672;BME280;46021;55.882;37.654;2023-02-18T02:08:01;99443.16;;;-10.45;75.18
50672;BME280;46021;55.882;37.654;2023-02-18T02:10:39;99432.50;;;-10.40;74.78
50672;BME280;46021;55.882;37.654;2023-02-18T02:13:14;99438.84;;;-10.30;74.87
50672;BME280;46021;55.882;37.654;2023-02-18T02:16:10;99432.31;;;-10.25;74.98
50672;BME280;46021;55.882;37.654;2023-02-18T02:18:49;99431.91;;;-10.16;74.82
50672;BME280;46021;55.882;37.654;2023-02-18T02:24:46;99425.13;;;-9.99;74.50
50672;BME280;46021;55.882;37.654;2023-02-18T02:27:22;99423.53;;;-9.97;74.18
50672;BME280;46021;55.882;37.654;2023-02-18T02:33:15;99419.56;;;-9.92;74.42
50672;BME280;46021;55.882;37.654;2023-02-18T02:35:52;99417.31;;;-9.86;74.28
50672;BME280;46021;55.882;37.654;2023-02-18T02:38:25;99406.38;;;-9.86;74.13
50672;BME280;46021;55.882;37.654;2023-02-18T02:41:01;99409.00;;;-9.83;74.14
50672;BME280;46021;55.882;37.654;2023-02-18T02:43:35;99395.41;;;-9.87;73.98
50672;BME280;46021;55.882;37.654;2023-02-18T02:46:13;99405.03;;;-9.78;73.94
50672;BME280;46021;55.882;37.654;2023-02-18T02:48:48;99399.81;;;-9.83;74.10
50672;BME280;46021;55.882;37.654;2023-02-18T02:51:24;99405.63;;;-9.84;74.23
50672;BME280;46021;55.882;37.654;2023-02-18T02:54:08;99393.84;;;-9.85;74.48
50672;BME280;46021;55.882;37.654;2023-02-18T02:56:36;99394.09;;;-9.78;73.88
50672;BME280;46021;55.882;37.654;2023-02-18T02:59:05;99398.88;;;-9.85;74.21
50672;BME280;46021;55.882;37.654;2023-02-18T03:01:47;99392.41;;;-9.97;74.62
50672;BME280;46021;55.882;37.654;2023-02-18T03:04:39;99396.94;;;-9.90;74.63
50672;BME280;46021;55.882;37.654;2023-02-18T03:07:28;99386.06;;;-9.89;74.62
50672;BME280;46021;55.882;37.654;2023-02-18T03:10:26;99388.38;;;-9.94;74.41
50672;BME280;46021;55.882;37.654;2023-02-18T03:13:03;99380.00;;;-9.93;74.27
50672;BME280;46021;55.882;37.654;2023-02-18T03:15:39;99367.88;;;-10.02;75.08
50672;BME280;46021;55.882;37.654;2023-02-18T03:18:15;99369.72;;;-9.97;74.87
50672;BME280;46021;55.882;37.654;2023-02-18T03:20:48;99366.31;;;-9.98;75.20
50672;BME280;46021;55.882;37.654;2023-02-18T03:23:22;99360.56;;;-9.95;74.86
50672;BME280;46021;55.882;37.654;2023-02-18T03:25:52;99363.50;;;-9.86;74.96
50672;BME280;46021;55.882;37.654;2023-02-18T03:28:23;99353.34;;;-9.88;74.98
50672;BME280;46021;55.882;37.654;2023-02-18T03:31:01;99349.03;;;-9.90;75.39
50672;BME280;46021;55.882;37.654;2023-02-18T03:33:34;99345.13;;;-9.84;75.10
50672;BME280;46021;55.882;37.654;2023-02-18T03:36:03;99347.56;;;-9.85;75.45
50672;BME280;46021;55.882;37.654;2023-02-18T03:38:32;99339.91;;;-9.87;75.41
50672;BME280;46021;55.882;37.654;2023-02-18T03:41:01;99342.84;;;-9.97;75.29
50672;BME280;46021;55.882;37.654;2023-02-18T03:43:29;99340.59;;;-10.10;75.45
50672;BME280;46021;55.882;37.654;2023-02-18T03:45:56;99332.22;;;-10.09;75.44
50672;BME280;46021;55.882;37.654;2023-02-18T03:48:24;99335.53;;;-10.10;76.13
50672;BME280;46021;55.882;37.654;2023-02-18T03:50:51;99327.16;;;-10.09;75.78
50672;BME280;46021;55.882;37.654;2023-02-18T03:53:18;99316.69;;;-10.18;76.28
50672;BME280;46021;55.882;37.654;2023-02-18T03:55:47;99313.19;;;-10.22;76.39
50672;BME280;46021;55.882;37.654;2023-02-18T03:58:15;99305.31;;;-10.28;76.20
50672;BME280;46021;55.882;37.654;2023-02-18T04:00:42;99298.66;;;-10.28;76.42
50672;BME280;46021;55.882;37.654;2023-02-18T04:03:09;99296.00;;;-10.31;76.55
50672;BME280;46021;55.882;37.654;2023-02-18T04:05:36;99302.66;;;-10.33;76.76
50672;BME280;46021;55.882;37.654;2023-02-18T04:08:04;99293.41;;;-10.32;77.02
50672;BME280;46021;55.882;37.654;2023-02-18T04:10:31;99292.41;;;-10.36;77.22
50672;BME280;46021;55.882;37.654;2023-02-18T04:13:00;99292.78;;;-10.27;77.29
50672;BME280;46021;55.882;37.654;2023-02-18T04:15:27;99287.25;;;-10.20;77.23
50672;BME280;46021;55.882;37.654;2023-02-18T04:17:54;99284.97;;;-10.13;77.27
50672;BME280;46021;55.882;37.654;2023-02-18T04:20:21;99282.41;;;-10.15;77.30
50672;BME280;46021;55.882;37.654;2023-02-18T04:22:48;99280.88;;;-10.11;77.02
50672;BME280;46021;55.882;37.654;2023-02-18T04:25:15;99281.69;;;-10.12;77.01
50672;BME280;46021;55.882;37.654;2023-02-18T04:27:42;99283.00;;;-10.21;77.12
50672;BME280;46021;55.882;37.654;2023-02-18T04:30:12;99275.44;;;-10.21;76.98
50672;BME280;46021;55.882;37.654;2023-02-18T04:32:39;99254.22;;;-10.26;76.36
50672;BME280;46021;55.882;37.654;2023-02-18T04:35:06;99270.03;;;-10.28;76.83
50672;BME280;46021;55.882;37.654;2023-02-18T04:37:34;99259.19;;;-10.27;77.40
50672;BME280;46021;55.882;37.654;2023-02-18T04:40:01;99262.56;;;-10.27;77.31
50672;BME280;46021;55.882;37.654;2023-02-18T04:42:29;99250.78;;;-10.28;76.93
50672;BME280;46021;55.882;37.654;2023-02-18T04:44:56;99248.25;;;-10.28;77.09
50672;BME280;46021;55.882;37.654;2023-02-18T04:47:25;99246.72;;;-10.24;76.83
50672;BME280;46021;55.882;37.654;2023-02-18T04:49:52;99242.53;;;-10.24;77.12
50672;BME280;46021;55.882;37.654;2023-02-18T04:52:19;99232.66;;;-10.19;77.02
50672;BME280;46021;55.882;37.654;2023-02-18T04:54:46;99230.34;;;-10.14;77.12
50672;BME280;46021;55.882;37.654;2023-02-18T04:57:13;99224.50;;;-10.13;76.85
50672;BME280;46021;55.882;37.654;2023-02-18T04:59:41;99217.75;;;-10.14;77.38
50672;BME280;46021;55.882;37.654;2023-02-18T05:02:08;99225.69;;;-10.05;77.11
50672;BME280;46021;55.882;37.654;2023-02-18T05:04:36;99227.03;;;-9.94;76.95
50672;BME280;46021;55.882;37.654;2023-02-18T05:07:03;99232.44;;;-9.85;76.98
50672;BME280;46021;55.882;37.654;2023-02-18T05:09:31;99223.53;;;-9.76;76.47
50672;BME280;46021;55.882;37.654;2023-02-18T05:11:58;99211.97;;;-9.71;76.67
50672;BME280;46021;55.882;37.654;2023-02-18T05:14:25;99220.88;;;-9.80;76.38
50672;BME280;46021;55.882;37.654;2023-02-18T05:16:52;99207.25;;;-9.85;76.35
50672;BME280;46021;55.882;37.654;2023-02-18T05:19:19;99205.13;;;-9.95;76.33
50672;BME280;46021;55.882;37.654;2023-02-18T05:21:48;99210.41;;;-9.89;76.52
50672;BME280;46021;55.882;37.654;2023-02-18T05:24:15;99192.75;;;-9.89;76.16
50672;BME280;46021;55.882;37.654;2023-02-18T05:26:42;99195.78;;;-9.76;76.33
50672;BME280;46021;55.882;37.654;2023-02-18T05:29:09;99194.66;;;-9.83;76.23
50672;BME280;46021;55.882;37.654;2023-02-18T05:31:36;99182.81;;;-9.86;76.13
50672;BME280;46021;55.882;37.654;2023-02-18T05:34:04;99190.75;;;-9.76;76.12
50672;BME280;46021;55.882;37.654;2023-02-18T05:36:31;99167.13;;;-9.78;75.91
50672;BME280;46021;55.882;37.654;2023-02-18T05:38:59;99172.28;;;-9.75;76.33
50672;BME280;46021;55.882;37.654;2023-02-18T05:41:26;99168.28;;;-9.70;75.73
50672;BME280;46021;55.882;37.654;2023-02-18T05:43:53;99171.44;;;-9.76;75.54
50672;BME280;46021;55.882;37.654;2023-02-18T05:46:38;99171.56;;;-9.73;75.46
50672;BME280;46021;55.882;37.654;2023-02-18T05:49:05;99168.28;;;-9.70;75.59
50672;BME280;46021;55.882;37.654;2023-02-18T05:51:32;99169.22;;;-9.68;75.44
50672;BME280;46021;55.882;37.654;2023-02-18T05:54:01;99161.88;;;-9.62;75.42
50672;BME280;46021;55.882;37.654;2023-02-18T05:56:28;99154.81;;;-9.50;75.68
50672;BME280;46021;55.882;37.654;2023-02-18T05:58:55;99150.56;;;-9.51;75.11
50672;BME280;46021;55.882;37.654;2023-02-18T06:01:22;99138.19;;;-9.45;75.24
50672;BME280;46021;55.882;37.654;2023-02-18T06:03:49;99134.16;;;-9.39;74.83
50672;BME280;46021;55.882;37.654;2023-02-18T06:06:16;99126.88;;;-9.32;74.80
50672;BME280;46021;55.882;37.654;2023-02-18T06:08:43;99122.03;;;-9.27;74.68
50672;BME280;46021;55.882;37.654;2023-02-18T06:11:12;99128.56;;;-9.32;74.38
50672;BME280;46021;55.882;37.654;2023-02-18T06:13:39;99123.72;;;-9.28;74.21
50672;BME280;46021;55.882;37.654;2023-02-18T06:16:06;99129.25;;;-9.36;73.65
50672;BME280;46021;55.882;37.654;2023-02-18T06:18:33;99115.03;;;-9.34;74.13
50672;BME280;46021;55.882;37.654;2023-02-18T06:21:01;99120.56;;;-9.22;74.00
50672;BME280;46021;55.882;37.654;2023-02-18T06:23:28;99099.09;;;-9.33;73.38
50672;BME280;46021;55.882;37.654;2023-02-18T06:25:55;99114.06;;;-9.15;73.60
50672;BME280;46021;55.882;37.654;2023-02-18T06:28:24;99109.28;;;-9.08;72.99
50672;BME280;46021;55.882;37.654;2023-02-18T06:30:51;99099.53;;;-8.98;73.43
50672;BME280;46021;55.882;37.654;2023-02-18T06:33:18;99101.34;;;-8.94;73.35
50672;BME280;46021;55.882;37.654;2023-02-18T06:35:52;99087.94;;;-8.93;72.31
50672;BME280;46021;55.882;37.654;2023-02-18T06:38:20;99099.75;;;-8.92;72.16
50672;BME280;46021;55.882;37.654;2023-02-18T06:40:47;99089.09;;;-9.08;71.55
50672;BME280;46021;55.882;37.654;2023-02-18T06:43:14;99086.28;;;-9.15;71.28
50672;BME280;46021;55.882;37.654;2023-02-18T06:45:42;99091.16;;;-8.97;71.63
50672;BME280;46021;55.882;37.654;2023-02-18T06:48:10;99091.38;;;-8.91;71.63
50672;BME280;46021;55.882;37.654;2023-02-18T06:50:37;99080.97;;;-8.76;71.85
50672;BME280;46021;55.882;37.654;2023-02-18T06:53:05;99071.72;;;-8.76;71.05
50672;BME280;46021;55.882;37.654;2023-02-18T06:55:32;99066.00;;;-8.70;71.12
50672;BME280;46021;55.882;37.654;2023-02-18T06:57:59;99061.53;;;-8.53;71.51
50672;BME280;46021;55.882;37.654;2023-02-18T07:00:26;99053.97;;;-8.53;71.09
50672;BME280;46021;55.882;37.654;2023-02-18T07:02:55;99055.78;;;-8.49;70.30
50672;BME280;46021;55.882;37.654;2023-02-18T07:05:22;99053.44;;;-8.45;69.95
50672;BME280;46021;55.882;37.654;2023-02-18T07:07:49;99053.72;;;-8.34;70.82
50672;BME280;46021;55.882;37.654;2023-02-18T07:10:16;99048.66;;;-8.35;69.50
50672;BME280;46021;55.882;37.654;2023-02-18T07:12:44;99042.56;;;-8.42;69.24
50672;BME280;46021;55.882;37.654;2023-02-18T07:15:11;99036.59;;;-8.44;69.38
50672;BME280;46021;55.882;37.654;2023-02-18T07:17:38;99036.91;;;-8.33;70.08
50672;BME280;46021;55.882;37.654;2023-02-18T07:20:08;99031.69;;;-8.12;69.94
50672;BME280;46021;55.882;37.654;2023-02-18T07:22:35;99038.31;;;-7.89;70.33
50672;BME280;46021;55.882;37.654;2023-02-18T07:25:02;99025.16;;;-7.78;69.20
50672;BME280;46021;55.882;37.654;2023-02-18T07:27:29;99013.31;;;-7.79;69.57
50672;BME280;46021;55.882;37.654;2023-02-18T07:29:56;99010.69;;;-7.82;68.99
50672;BME280;46021;55.882;37.654;2023-02-18T07:32:24;99008.34;;;-7.76;68.66
50672;BME280;46021;55.882;37.654;2023-02-18T07:34:51;99002.00;;;-7.63;68.79
50672;BME280;46021;55.882;37.654;2023-02-18T07:37:20;98997.19;;;-7.54;68.75
50672;BME280;46021;55.882;37.654;2023-02-18T07:39:47;98992.47;;;-7.42;68.63
50672;BME280;46021;55.882;37.654;2023-02-18T07:42:14;99002.03;;;-7.33;69.02
50672;BME280;46021;55.882;37.654;2023-02-18T07:44:43;98989.00;;;-7.46;67.91
50672;BME280;46021;55.882;37.654;2023-02-18T07:47:14;98982.88;;;-7.54;67.88
50672;BME280;46021;55.882;37.654;2023-02-18T07:49:42;98984.34;;;-7.60;67.99
50672;BME280;46021;55.882;37.654;2023-02-18T07:52:09;98975.97;;;-7.87;68.35
50672;BME280;46021;55.882;37.654;2023-02-18T07:54:37;98970.53;;;-7.72;68.43
50672;BME280;46021;55.882;37.654;2023-02-18T07:57:04;98979.84;;;-7.71;68.26
50672;BME280;46021;55.882;37.654;2023-02-18T07:59:32;98965.53;;;-7.70;68.03
50672;BME280;46021;55.882;37.654;2023-02-18T08:01:59;98976.44;;;-7.71;69.00
50672;BME280;46021;55.882;37.654;2023-02-18T08:04:26;98963.09;;;-7.67;69.34
50672;BME280;46021;55.882;37.654;2023-02-18T08:06:53;98964.06;;;-7.62;68.98
50672;BME280;46021;55.882;37.654;2023-02-18T08:09:20;98954.09;;;-7.57;69.32
50672;BME280;46021;55.882;37.654;2023-02-18T08:11:49;98936.94;;;-7.66;69.44
50672;BME280;46021;55.882;37.654;2023-02-18T08:14:16;98941.66;;;-7.50;68.97
50672;BME280;46021;55.882;37.654;2023-02-18T08:16:43;98931.59;;;-7.47;69.83
50672;BME280;46021;55.882;37.654;2023-02-18T08:19:10;98935.03;;;-7.45;68.70
50672;BME280;46021;55.882;37.654;2023-02-18T08:21:37;98927.88;;;-7.29;69.13
50672;BME280;46021;55.882;37.654;2023-02-18T08:24:05;98924.22;;;-7.39;69.79
50672;BME280;46021;55.882;37.654;2023-02-18T08:26:32;98920.34;;;-7.26;69.73
50672;BME280;46021;55.882;37.654;2023-02-18T08:29:01;98910.88;;;-7.33;69.05
50672;BME280;46021;55.882;37.654;2023-02-18T08:31:29;98905.31;;;-7.52;69.65
50672;BME280;46021;55.882;37.654;2023-02-18T08:33:58;98905.94;;;-7.29;69.77
50672;BME280;46021;55.882;37.654;2023-02-18T08:36:26;98912.97;;;-7.17;68.97
50672;BME280;46021;55.882;37.654;2023-02-18T08:38:53;98891.91;;;-7.16;69.01
50672;BME280;46021;55.882;37.654;2023-02-18T08:41:21;98899.56;;;-7.13;68.77
50672;BME280;46021;55.882;37.654;2023-02-18T08:43:48;98895.66;;;-7.01;69.39
50672;BME280;46021;55.882;37.654;2023-02-18T08:46:17;98894.44;;;-7.16;69.24
50672;BME280;46021;55.882;37.654;2023-02-18T08:48:44;98890.38;;;-7.09;69.39
50672;BME280;46021;55.882;37.654;2023-02-18T08:51:13;98886.91;;;-7.14;68.93
50672;BME280;46021;55.882;37.654;2023-02-18T08:53:41;98890.47;;;-7.06;69.80
50672;BME280;46021;55.882;37.654;2023-02-18T08:56:08;98878.75;;;-7.02;69.36
50672;BME280;46021;55.882;37.654;2023-02-18T08:58:36;98869.59;;;-6.97;69.54
50672;BME280;46021;55.882;37.654;2023-02-18T09:01:05;98873.13;;;-6.91;69.33
50672;BME280;46021;55.882;37.654;2023-02-18T09:03:34;98869.94;;;-6.83;68.60
50672;BME280;46021;55.882;37.654;2023-02-18T09:06:02;98852.81;;;-6.92;68.75
50672;BME280;46021;55.882;37.654;2023-02-18T09:08:29;98851.63;;;-6.72;69.00
50672;BME280;46021;55.882;37.654;2023-02-18T09:10:58;98851.19;;;-6.90;68.98
50672;BME280;46021;55.882;37.654;2023-02-18T09:13:26;98831.84;;;-6.87;68.66
50672;BME280;46021;55.882;37.654;2023-02-18T09:15:58;98842.25;;;-6.76;69.42
50672;BME280;46021;55.882;37.654;2023-02-18T09:18:25;98838.41;;;-6.58;69.27
50672;BME280;46021;55.882;37.654;2023-02-18T09:20:56;98835.41;;;-6.42;69.07
50672;BME280;46021;55.882;37.654;2023-02-18T09:23:24;98823.94;;;-6.24;69.23
50672;BME280;46021;55.882;37.654;2023-02-18T09:25:52;98811.38;;;-6.20;68.76
50672;BME280;46021;55.882;37.654;2023-02-18T09:28:19;98811.88;;;-5.95;68.65
50672;BME280;46021;55.882;37.654;2023-02-18T09:30:46;98812.38;;;-5.68;68.69
50672;BME280;46021;55.882;37.654;2023-02-18T09:33:13;98790.84;;;-5.42;67.99
50672;BME280;46021;55.882;37.654;2023-02-18T09:35:41;98805.22;;;-5.41;67.43
50672;BME280;46021;55.882;37.654;2023-02-18T09:38:11;98790.66;;;-5.52;66.87
50672;BME280;46021;55.882;37.654;2023-02-18T09:40:41;98789.94;;;-5.44;67.30
50672;BME280;46021;55.882;37.654;2023-02-18T09:43:17;98796.72;;;-5.43;66.88
50672;BME280;46021;55.882;37.654;2023-02-18T09:45:45;98789.78;;;-5.54;66.73
50672;BME280;46021;55.882;37.654;2023-02-18T09:48:12;98782.22;;;-5.51;66.50
50672;BME280;46021;55.882;37.654;2023-02-18T09:50:39;98772.94;;;-5.49;66.63
50672;BME280;46021;55.882;37.654;2023-02-18T09:53:09;98769.81;;;-5.81;66.84
50672;BME280;46021;55.882;37.654;2023-02-18T09:55:42;98765.25;;;-5.53;67.60
50672;BME280;46021;55.882;37.654;2023-02-18T09:58:13;98746.03;;;-5.37;66.51
50672;BME280;46021;55.882;37.654;2023-02-18T10:00:42;98752.09;;;-5.31;65.72
50672;BME280;46021;55.882;37.654;2023-02-18T10:03:13;98741.75;;;-5.41;65.74
50672;BME280;46021;55.882;37.654;2023-02-18T10:05:48;98737.38;;;-5.49;65.44
50672;BME280;46021;55.882;37.654;2023-02-18T10:08:20;98744.53;;;-5.26;66.01
50672;BME280;46021;55.882;37.654;2023-02-18T10:10:51;98737.78;;;-5.74;66.11
50672;BME280;46021;55.882;37.654;2023-02-18T10:13:20;98740.50;;;-5.65;66.63
50672;BME280;46021;55.882;37.654;2023-02-18T10:15:49;98737.19;;;-5.61;66.64
50672;BME280;46021;55.882;37.654;2023-02-18T10:18:25;98711.56;;;-5.73;66.48
50672;BME280;46021;55.882;37.654;2023-02-18T10:21:00;98705.06;;;-5.59;66.50
50672;BME280;46021;55.882;37.654;2023-02-18T10:23:32;98701.81;;;-5.49;66.13
50672;BME280;46021;55.882;37.654;2023-02-18T10:26:02;98679.84;;;-5.46;66.21
50672;BME280;46021;55.882;37.654;2023-02-18T10:28:31;98684.28;;;-5.33;65.67
50672;BME280;46021;55.882;37.654;2023-02-18T10:31:01;98680.44;;;-5.10;66.34
50672;BME280;46021;55.882;37.654;2023-02-18T10:33:34;98685.81;;;-4.88;65.37
50672;BME280;46021;55.882;37.654;2023-02-18T10:36:17;98683.34;;;-4.83;63.98
50672;BME280;46021;55.882;37.654;2023-02-18T10:39:01;98679.28;;;-4.67;65.26
50672;BME280;46021;55.882;37.654;2023-02-18T10:41:41;98680.25;;;-4.58;64.68
50672;BME280;46021;55.882;37.654;2023-02-18T10:44:18;98676.13;;;-4.51;64.51
50672;BME280;46021;55.882;37.654;2023-02-18T10:46:54;98677.13;;;-4.38;64.52
50672;BME280;46021;55.882;37.654;2023-02-18T10:49:47;98673.13;;;-4.18;64.36
50672;BME280;46021;55.882;37.654;2023-02-18T10:52:20;98670.94;;;-3.81;64.64
50672;BME280;46021;55.882;37.654;2023-02-18T10:54:51;98665.25;;;-3.50;61.92
50672;BME280;46021;55.882;37.654;2023-02-18T10:57:22;98654.97;;;-3.60;62.02
50672;BME280;46021;55.882;37.654;2023-02-18T10:59:55;98634.41;;;-3.84;62.23
50672;BME280;46021;55.882;37.654;2023-02-18T11:02:25;98643.38;;;-4.20;61.28
50672;BME280;46021;55.882;37.654;2023-02-18T11:04:54;98640.06;;;-4.15;61.66
50672;BME280;46021;55.882;37.654;2023-02-18T11:07:28;98645.13;;;-4.18;61.44
50672;BME280;46021;55.882;37.654;2023-02-18T11:09:57;98640.69;;;-4.36;61.10
50672;BME280;46021;55.882;37.654;2023-02-18T11:12:28;98642.47;;;-4.25;61.94
50672;BME280;46021;55.882;37.654;2023-02-18T11:15:15;98632.91;;;-4.48;62.08
50672;BME280;46021;55.882;37.654;2023-02-18T11:17:44;98636.94;;;-4.65;62.26
50672;BME280;46021;55.882;37.654;2023-02-18T11:20:22;98629.94;;;-4.85;62.94
50672;BME280;46021;55.882;37.654;2023-02-18T11:22:50;98614.84;;;-5.37;63.23
50672;BME280;46021;55.882;37.654;2023-02-18T11:25:22;98598.19;;;-5.74;64.35
50672;BME280;46021;55.882;37.654;2023-02-18T11:27:54;98613.44;;;-5.74;65.13
50672;BME280;46021;55.882;37.654;2023-02-18T11:30:24;98608.59;;;-5.56;64.96
50672;BME280;46021;55.882;37.654;2023-02-18T11:32:54;98605.66;;;-5.27;64.82
50672;BME280;46021;55.882;37.654;2023-02-18T11:35:25;98607.75;;;-4.98;65.39
50672;BME280;46021;55.882;37.654;2023-02-18T11:37:53;98580.94;;;-4.72;64.75
50672;BME280;46021;55.882;37.654;2023-02-18T11:40:24;98599.81;;;-4.51;62.48
50672;BME280;46021;55.882;37.654;2023-02-18T11:43:03;98592.47;;;-4.25;63.26
50672;BME280;46021;55.882;37.654;2023-02-18T11:45:32;98598.69;;;-3.94;63.86
50672;BME280;46021;55.882;37.654;2023-02-18T11:48:01;98589.47;;;-3.81;61.21
50672;BME280;46021;55.882;37.654;2023-02-18T11:50:33;98580.78;;;-4.04;61.02
50672;BME280;46021;55.882;37.654;2023-02-18T11:53:30;98567.03;;;-4.22;61.20
50672;BME280;46021;55.882;37.654;2023-02-18T11:55:59;98574.81;;;-4.05;61.32
50672;BME280;46021;55.882;37.654;2023-02-18T11:58:33;98569.59;;;-4.23;61.55
50672;BME280;46021;55.882;37.654;2023-02-18T12:01:04;98552.31;;;-4.55;61.47
50672;BME280;46021;55.882;37.654;2023-02-18T12:03:37;98558.31;;;-4.47;61.74
50672;BME280;46021;55.882;37.654;2023-02-18T12:06:13;98549.72;;;-4.58;63.10
50672;BME280;46021;55.882;37.654;2023-02-18T12:08:47;98561.13;;;-4.19;62.24
50672;BME280;46021;55.882;37.654;2023-02-18T12:11:22;98556.06;;;-4.16;61.66
50672;BME280;46021;55.882;37.654;2023-02-18T12:13:56;98544.44;;;-3.86;62.46
50672;BME280;46021;55.882;37.654;2023-02-18T12:16:31;98543.75;;;-3.62;61.15
50672;BME280;46021;55.882;37.654;2023-02-18T12:19:12;98544.41;;;-3.89;60.51
50672;BME280;46021;55.882;37.654;2023-02-18T12:21:54;98542.78;;;-3.81;60.47
50672;BME280;46021;55.882;37.654;2023-02-18T12:24:35;98544.56;;;-3.68;61.52
50672;BME280;46021;55.882;37.654;2023-02-18T12:27:12;98535.91;;;-3.95;59.78
50672;BME280;46021;55.882;37.654;2023-02-18T12:29:55;98533.16;;;-4.16;61.33
50672;BME280;46021;55.882;37.654;2023-02-18T12:32:32;98519.22;;;-4.58;61.91
50672;BME280;46021;55.882;37.654;2023-02-18T12:35:24;98512.53;;;-4.47;61.65
50672;BME280;46021;55.882;37.654;2023-02-18T12:38:08;98505.13;;;-4.22;61.59
50672;BME280;46021;55.882;37.654;2023-02-18T12:40:55;98532.13;;;-4.40;60.33
50672;BME280;46021;55.882;37.654;2023-02-18T12:43:36;98513.13;;;-4.76;61.63
50672;BME280;46021;55.882;37.654;2023-02-18T12:46:22;98500.53;;;-4.65;61.68
50672;BME280;46021;55.882;37.654;2023-02-18T12:49:05;98513.13;;;-4.73;61.43
50672;BME280;46021;55.882;37.654;2023-02-18T12:51:51;98515.72;;;-4.70;61.51
50672;BME280;46021;55.882;37.654;2023-02-18T12:54:33;98501.06;;;-4.92;61.63
50672;BME280;46021;55.882;37.654;2023-02-18T12:57:15;98504.31;;;-5.05;62.85
50672;BME280;46021;55.882;37.654;2023-02-18T13:03:17;98494.09;;;-5.12;62.47
50672;BME280;46021;55.882;37.654;2023-02-18T13:05:56;98488.13;;;-5.14;63.33
50672;BME280;46021;55.882;37.654;2023-02-18T13:08:37;98500.78;;;-5.17;62.42
50672;BME280;46021;55.882;37.654;2023-02-18T13:11:22;98498.13;;;-5.26;63.44
50672;BME280;46021;55.882;37.654;2023-02-18T13:13:58;98474.25;;;-5.42;63.54
50672;BME280;46021;55.882;37.654;2023-02-18T13:16:28;98486.88;;;-5.46;63.52